createdAt,value
2022-12-31T00:02:31.902Z,99656.31
2022-12-31T00:05:21.352Z,99652.25
2022-12-31T00:08:08.804Z,99654.16
2022-12-31T00:10:56.561Z,99658.34
2022-12-31T00:13:44.400Z,99648.84
2022-12-31T00:16:36.631Z,99647.34
2022-12-31T00:19:25.031Z,99661.78
2022-12-31T00:22:14.106Z,99665.25
2022-12-31T00:25:01.675Z,99664.97
2022-12-31T00:27:48.947Z,99673.91
2022-12-31T00:30:36.451Z,99666.97
2022-12-31T00:33:24.039Z,99664.59
2022-12-31T00:36:14.374Z,99675.47
2022-12-31T00:39:04.636Z,99677.03
2022-12-31T00:41:51.908Z,99675.25
2022-12-31T00:44:39.264Z,99674.66
2022-12-31T00:47:26.566Z,99669.13
2022-12-31T00:50:14.373Z,99676.09
2022-12-31T00:53:01.702Z,99677.97
2022-12-31T00:55:53.459Z,99674.66
2022-12-31T00:58:41.439Z,99663.28
2022-12-31T01:01:31.123Z,99664.94
2022-12-31T01:04:21.172Z,99664.56
2022-12-31T01:07:08.365Z,99656.38
2022-12-31T01:09:55.658Z,99648.63
2022-12-31T01:12:45.025Z,99659.41
2022-12-31T01:15:35.777Z,99655.06
2022-12-31T01:18:23.725Z,99652.63
2022-12-31T01:21:12.616Z,99657.03
2022-12-31T01:24:00.697Z,99649.72
2022-12-31T01:26:48.963Z,99659.19
2022-12-31T01:29:38.473Z,99662.50
2022-12-31T01:32:26.247Z,99657.44
2022-12-31T01:35:13.716Z,99657.28
2022-12-31T01:38:00.971Z,99657.72
2022-12-31T01:40:48.387Z,99652.44
2022-12-31T01:43:51.304Z,99649.84
2022-12-31T01:46:43.819Z,99653.41
2022-12-31T01:49:37.877Z,99647.63
2022-12-31T01:52:30.357Z,99639.06
2022-12-31T01:55:22.703Z,99641.72
2022-12-31T01:58:13.201Z,99651.00
2022-12-31T02:01:01.008Z,99649.59
2022-12-31T02:03:49.778Z,99638.66
2022-12-31T02:06:41.465Z,99629.06
2022-12-31T02:09:29.220Z,99628.53
2022-12-31T02:12:17.006Z,99625.47
2022-12-31T02:15:05.054Z,99628.25
2022-12-31T02:18:02.567Z,99626.22
2022-12-31T02:21:15.817Z,99630.53
2022-12-31T02:24:32.777Z,99616.19
2022-12-31T02:27:35.100Z,99614.09
2022-12-31T02:30:26.284Z,99594.34
2022-12-31T02:33:20.918Z,99590.53
2022-12-31T02:36:13.546Z,99590.88
2022-12-31T02:39:02.438Z,99585.38
2022-12-31T02:41:53.938Z,99579.94
2022-12-31T02:44:43.314Z,99572.97
2022-12-31T02:47:48.324Z,99566.56
2022-12-31T02:50:55.704Z,99571.41
2022-12-31T02:54:13.166Z,99566.09
2022-12-31T02:57:11.928Z,99568.69
2022-12-31T03:00:19.928Z,99563.06
2022-12-31T03:03:10.492Z,99559.41
2022-12-31T03:05:59.667Z,99545.59
2022-12-31T03:09:00.654Z,99541.31
2022-12-31T03:12:05.348Z,99535.53
2022-12-31T03:14:52.935Z,99535.41
2022-12-31T03:17:40.705Z,99529.47
2022-12-31T03:20:50.341Z,99507.84
2022-12-31T03:23:41.223Z,99507.97
2022-12-31T03:26:27.393Z,99519.47
2022-12-31T03:29:14.967Z,99514.88
2022-12-31T03:32:02.224Z,99511.56
2022-12-31T03:34:56.061Z,99524.06
2022-12-31T03:37:45.126Z,99525.25
2022-12-31T03:40:34.543Z,99519.22
2022-12-31T03:43:22.224Z,99519.47
2022-12-31T03:46:09.789Z,99506.66
2022-12-31T03:48:57.363Z,99510.22
2022-12-31T03:51:44.649Z,99510.91
2022-12-31T03:54:33.337Z,99515.81
2022-12-31T03:57:21.032Z,99498.91
2022-12-31T04:00:11.031Z,99497.47
2022-12-31T04:02:58.856Z,99492.88
2022-12-31T04:05:46.437Z,99504.88
2022-12-31T04:08:33.608Z,99512.50
2022-12-31T04:11:22.592Z,99503.56
2022-12-31T04:14:10.301Z,99502.06
2022-12-31T04:16:57.824Z,99529.44
2022-12-31T04:19:45.097Z,99582.97
2022-12-31T04:22:32.418Z,99593.06
2022-12-31T04:25:19.841Z,99600.94
2022-12-31T04:28:09.806Z,99604.22
2022-12-31T04:30:57.175Z,99602.13
2022-12-31T04:33:44.629Z,99593.41
2022-12-31T04:36:31.995Z,99591.00
2022-12-31T04:39:19.566Z,99608.47
2022-12-31T04:42:07.391Z,99617.59
2022-12-31T04:44:56.017Z,99608.38
2022-12-31T04:47:43.266Z,99613.47
2022-12-31T04:50:30.666Z,99606.19
2022-12-31T04:53:18.112Z,99613.56
2022-12-31T04:56:06.253Z,99627.28
2022-12-31T04:58:53.681Z,99626.06
2022-12-31T05:01:42.607Z,99632.44
2022-12-31T05:04:30.068Z,99616.19
2022-12-31T05:07:17.662Z,99616.25
2022-12-31T05:10:05.712Z,99627.47
2022-12-31T05:12:52.984Z,99623.88
2022-12-31T05:15:40.942Z,99623.41
2022-12-31T05:18:30.553Z,99629.72
2022-12-31T05:21:22.252Z,99620.69
2022-12-31T05:24:10.090Z,99603.59
2022-12-31T05:26:58.181Z,99611.34
2022-12-31T05:29:45.384Z,99604.41
2022-12-31T05:32:32.905Z,99606.31
2022-12-31T05:35:21.950Z,99596.59
2022-12-31T05:38:09.708Z,99592.94
2022-12-31T05:41:04.968Z,99591.91
2022-12-31T05:43:52.575Z,99589.09
2022-12-31T05:46:40.253Z,99601.91
2022-12-31T05:49:27.986Z,99600.66
2022-12-31T05:52:16.926Z,99614.31
2022-12-31T05:55:04.580Z,99608.47
2022-12-31T05:57:52.147Z,99610.13
2022-12-31T06:00:39.686Z,99612.72
2022-12-31T06:03:27.067Z,99597.00
2022-12-31T06:06:14.671Z,99603.00
2022-12-31T06:09:03.840Z,99603.06
2022-12-31T06:11:51.559Z,99603.78
2022-12-31T06:14:45.280Z,99592.31
2022-12-31T06:17:33.336Z,99579.19
2022-12-31T06:20:20.849Z,99565.78
2022-12-31T06:23:08.260Z,99559.38
2022-12-31T06:25:57.221Z,99557.22
2022-12-31T06:28:44.658Z,99565.81
2022-12-31T06:31:32.570Z,99568.34
2022-12-31T06:34:20.417Z,99562.28
2022-12-31T06:37:08.076Z,99556.69
2022-12-31T06:39:55.549Z,99557.50
2022-12-31T06:42:44.425Z,99561.75
2022-12-31T06:45:31.896Z,99576.38
2022-12-31T06:48:19.410Z,99569.59
2022-12-31T06:51:11.869Z,99569.47
2022-12-31T06:54:02.492Z,99569.22
2022-12-31T06:56:50.325Z,99577.34
2022-12-31T06:59:39.815Z,99584.13
2022-12-31T07:02:52.887Z,99582.81
2022-12-31T07:05:48.297Z,99585.50
2022-12-31T07:08:47.711Z,99596.34
2022-12-31T07:11:44.125Z,99597.16
2022-12-31T07:14:38.825Z,99605.88
2022-12-31T07:17:35.212Z,99616.44
2022-12-31T07:20:26.144Z,99620.88
2022-12-31T07:23:14.336Z,99622.75
2022-12-31T07:26:08.261Z,99639.91
2022-12-31T07:29:05.906Z,99640.00
2022-12-31T07:32:03.645Z,99635.84
2022-12-31T07:35:00.328Z,99652.84
2022-12-31T07:37:59.912Z,99651.66
2022-12-31T07:40:59.813Z,99633.03
2022-12-31T07:43:58.047Z,99660.84
2022-12-31T07:46:54.659Z,99649.88
2022-12-31T07:49:45.826Z,99674.66
2022-12-31T07:52:35.346Z,99684.69
2022-12-31T07:55:22.667Z,99695.81
2022-12-31T07:58:20.672Z,99704.81
2022-12-31T08:01:11.419Z,99699.09
2022-12-31T08:04:07.728Z,99693.84
2022-12-31T08:07:04.075Z,99690.53
2022-12-31T08:10:04.269Z,99704.38
2022-12-31T08:12:54.119Z,99687.19
2022-12-31T08:15:42.705Z,99690.28
2022-12-31T08:18:30.726Z,99705.56
2022-12-31T08:21:34.791Z,99689.75
2022-12-31T08:24:31.350Z,99707.59
2022-12-31T08:27:30.428Z,99700.78
2022-12-31T08:30:21.346Z,99697.56
2022-12-31T08:33:14.082Z,99688.53
2022-12-31T08:36:13.287Z,99695.97
2022-12-31T08:39:08.285Z,99701.34
2022-12-31T08:41:58.946Z,99699.97
2022-12-31T08:44:57.119Z,99689.06
2022-12-31T08:47:56.436Z,99694.00
2022-12-31T08:50:47.675Z,99700.16
2022-12-31T08:53:36.346Z,99703.78
2022-12-31T08:56:30.031Z,99714.66
2022-12-31T08:59:29.996Z,99703.84
2022-12-31T09:02:48.218Z,99702.72
2022-12-31T09:05:47.418Z,99708.66
2022-12-31T09:08:43.143Z,99710.81
2022-12-31T09:11:35.616Z,99718.81
2022-12-31T09:14:43.017Z,99720.91
2022-12-31T09:17:46.937Z,99719.72
2022-12-31T09:20:44.447Z,99728.56
2022-12-31T09:23:33.185Z,99739.50
2022-12-31T09:26:41.598Z,99732.75
2022-12-31T09:29:42.943Z,99726.31
2022-12-31T09:32:40.585Z,99729.72
2022-12-31T09:35:36.945Z,99726.63
2022-12-31T09:38:31.581Z,99736.63
2022-12-31T09:41:36.686Z,99738.66
2022-12-31T09:45:00.480Z,99748.63
2022-12-31T09:48:26.557Z,99732.47
2022-12-31T09:51:31.437Z,99739.84
2022-12-31T09:54:41.757Z,99733.06
2022-12-31T09:57:41.968Z,99730.91
2022-12-31T10:00:35.840Z,99745.00
2022-12-31T10:03:45.185Z,99750.56
2022-12-31T10:06:43.848Z,99751.38
2022-12-31T10:09:45.274Z,99768.56
2022-12-31T10:13:00.202Z,99754.22
2022-12-31T10:16:10.708Z,99762.91
2022-12-31T10:19:33.311Z,99746.16
2022-12-31T10:22:45.643Z,99764.25
2022-12-31T10:25:58.034Z,99761.00
2022-12-31T10:28:55.462Z,99770.13
2022-12-31T10:31:55.847Z,99787.09
2022-12-31T10:34:54.227Z,99797.16
2022-12-31T10:37:50.206Z,99784.78
2022-12-31T10:41:05.262Z,99806.50
2022-12-31T10:44:36.051Z,99828.19
2022-12-31T10:47:58.671Z,99837.03
2022-12-31T10:51:25.766Z,99864.75
2022-12-31T10:54:41.943Z,99860.03
2022-12-31T10:58:08.116Z,99870.19
2022-12-31T11:01:02.455Z,99874.34
2022-12-31T11:04:21.023Z,99874.69
2022-12-31T11:07:43.823Z,99852.09
2022-12-31T11:11:03.624Z,99875.84
2022-12-31T11:14:17.413Z,99863.19
2022-12-31T11:17:22.381Z,99868.59
2022-12-31T11:20:28.640Z,99869.19
2022-12-31T11:23:28.416Z,99879.94
2022-12-31T11:26:30.859Z,99856.72
2022-12-31T11:29:33.986Z,99871.44
2022-12-31T11:32:34.438Z,99864.19
2022-12-31T11:35:33.759Z,99858.00
2022-12-31T11:38:26.237Z,99864.34
2022-12-31T11:41:18.174Z,99859.03
2022-12-31T11:44:20.244Z,99852.88
2022-12-31T11:47:24.298Z,99852.53
2022-12-31T11:50:29.367Z,99842.13
2022-12-31T11:53:36.229Z,99834.53
2022-12-31T11:56:29.655Z,99831.38
2022-12-31T11:59:19.832Z,99832.38
2022-12-31T12:02:26.920Z,99826.09
2022-12-31T12:05:20.395Z,99823.00
2022-12-31T12:08:08.093Z,99822.00
2022-12-31T12:11:08.020Z,99828.59
2022-12-31T12:13:55.847Z,99820.66
2022-12-31T12:16:45.165Z,99830.34
2022-12-31T12:19:35.114Z,99832.28
2022-12-31T12:22:25.032Z,99832.16
2022-12-31T12:25:20.732Z,99824.97
2022-12-31T12:28:24.736Z,99830.50
2022-12-31T12:31:21.202Z,99842.41
2022-12-31T12:34:24.848Z,99852.28
2022-12-31T12:37:28.312Z,99835.34
2022-12-31T12:40:33.116Z,99849.03
2022-12-31T12:43:26.708Z,99850.00
2022-12-31T12:46:22.085Z,99856.16
2022-12-31T12:49:24.309Z,99857.97
2022-12-31T12:52:34.145Z,99858.22
2022-12-31T12:55:27.567Z,99839.53
2022-12-31T12:58:27.725Z,99850.03
2022-12-31T13:01:25.887Z,99842.34
2022-12-31T13:04:45.047Z,99843.44
2022-12-31T13:07:48.278Z,99842.00
2022-12-31T13:10:50.941Z,99845.03
2022-12-31T13:13:45.145Z,99860.22
2022-12-31T13:16:40.378Z,99829.09
2022-12-31T13:19:36.316Z,99833.69
2022-12-31T13:22:34.171Z,99859.19
2022-12-31T13:25:31.011Z,99852.53
2022-12-31T13:28:20.807Z,99843.16
2022-12-31T13:31:13.802Z,99841.00
2022-12-31T13:34:07.299Z,99843.84
2022-12-31T13:36:58.854Z,99851.19
2022-12-31T13:39:59.507Z,99849.22
2022-12-31T13:42:53.852Z,99853.53
2022-12-31T13:45:45.661Z,99868.56
2022-12-31T13:48:40.313Z,99858.53
2022-12-31T13:51:36.755Z,99880.44
2022-12-31T13:54:36.271Z,99888.56
2022-12-31T13:57:39.210Z,99867.56
2022-12-31T14:00:30.037Z,99883.34
2022-12-31T14:03:23.712Z,99885.00
2022-12-31T14:06:22.162Z,99882.91
2022-12-31T14:09:14.891Z,99885.06
2022-12-31T14:12:22.461Z,99895.69
2022-12-31T14:15:19.674Z,99908.38
2022-12-31T14:18:17.175Z,99890.91
2022-12-31T14:21:13.433Z,99902.50
2022-12-31T14:24:08.212Z,99886.59
2022-12-31T14:26:59.888Z,99892.28
2022-12-31T14:29:51.017Z,99907.63
2022-12-31T14:33:15.519Z,99923.09
2022-12-31T14:36:14.315Z,99931.94
2022-12-31T14:39:19.848Z,99948.69
2022-12-31T14:42:20.085Z,99925.63
2022-12-31T14:45:23.512Z,99950.34
2022-12-31T14:48:26.045Z,99945.00
2022-12-31T14:51:14.685Z,99949.31
2022-12-31T14:54:02.370Z,99933.88
2022-12-31T14:56:51.484Z,99943.69
2022-12-31T14:59:40.815Z,99951.81
2022-12-31T15:02:31.320Z,99946.44
2022-12-31T15:05:23.926Z,99966.16
2022-12-31T15:08:48.579Z,99973.22
2022-12-31T15:11:49.966Z,99959.13
2022-12-31T15:15:09.494Z,99962.34
2022-12-31T15:18:11.606Z,99962.59
2022-12-31T15:21:33.744Z,99961.06
2022-12-31T15:24:22.928Z,99955.94
2022-12-31T15:27:32.364Z,99948.28
2022-12-31T15:30:38.143Z,99948.41
2022-12-31T15:33:32.698Z,99958.44
2022-12-31T15:36:23.836Z,99957.84
2022-12-31T15:39:41.376Z,99955.22
2022-12-31T15:42:40.652Z,99965.59
2022-12-31T15:45:34.327Z,99963.34
2022-12-31T15:48:27.671Z,99958.44
2022-12-31T15:51:24.101Z,99964.03
2022-12-31T15:54:26.034Z,99970.84
2022-12-31T15:57:19.382Z,99969.91
2022-12-31T16:00:10.066Z,99978.25
2022-12-31T16:02:57.887Z,99974.78
2022-12-31T16:05:45.342Z,99986.25
2022-12-31T16:08:36.664Z,99980.53
2022-12-31T16:11:25.398Z,99996.53
2022-12-31T16:14:21.598Z,99982.44
2022-12-31T16:17:26.004Z,99990.31
2022-12-31T16:20:25.620Z,99990.22
2022-12-31T16:23:24.760Z,100011.59
2022-12-31T16:26:13.844Z,100002.84
2022-12-31T16:29:04.448Z,100011.72
2022-12-31T16:31:54.615Z,100003.34
2022-12-31T16:34:42.447Z,99999.75
2022-12-31T16:37:30.319Z,100009.19
2022-12-31T16:40:24.944Z,99999.88
2022-12-31T16:43:30.057Z,100007.63
2022-12-31T16:46:23.074Z,100007.16
2022-12-31T16:49:19.926Z,100002.50
2022-12-31T16:52:18.746Z,100001.19
2022-12-31T16:55:09.727Z,100014.19
2022-12-31T16:58:02.111Z,100012.38
2022-12-31T17:00:52.796Z,100009.53
2022-12-31T17:03:44.119Z,99999.59
2022-12-31T17:06:33.955Z,99998.66
2022-12-31T17:09:23.514Z,99991.72
2022-12-31T17:12:17.781Z,99993.75
2022-12-31T17:15:07.352Z,99993.25
2022-12-31T17:17:58.735Z,99996.50
2022-12-31T17:20:46.518Z,99987.28
2022-12-31T17:23:37.109Z,99998.75
2022-12-31T17:26:28.377Z,99985.28
2022-12-31T17:29:26.041Z,99994.94
2022-12-31T17:32:30.431Z,99992.91
2022-12-31T17:35:35.574Z,99990.78
2022-12-31T17:38:41.244Z,99981.38
2022-12-31T17:41:29.479Z,99962.63
2022-12-31T17:44:21.492Z,99972.75
2022-12-31T17:47:11.865Z,99953.88
2022-12-31T17:49:59.338Z,99950.91
2022-12-31T17:52:49.594Z,99947.91
2022-12-31T17:55:37.303Z,99957.94
2022-12-31T17:58:30.029Z,99954.72
2022-12-31T18:01:19.998Z,99937.88
2022-12-31T18:04:12.630Z,99921.97
2022-12-31T18:07:00.232Z,99932.00
2022-12-31T18:09:49.127Z,99933.19
2022-12-31T18:12:36.701Z,99928.16
2022-12-31T18:15:25.815Z,99919.81
2022-12-31T18:18:24.785Z,99923.06
2022-12-31T18:21:19.453Z,99925.63
2022-12-31T18:24:08.009Z,99929.00
2022-12-31T18:26:56.789Z,99945.13
2022-12-31T18:29:44.694Z,99935.22
2022-12-31T18:32:33.273Z,99944.03
2022-12-31T18:38:31.033Z,99928.84
2022-12-31T18:41:21.124Z,99936.63
2022-12-31T18:44:12.764Z,99946.56
2022-12-31T18:47:00.414Z,99937.50
2022-12-31T18:49:48.872Z,99941.09
2022-12-31T18:52:36.471Z,99934.41
2022-12-31T18:55:28.174Z,99919.81
2022-12-31T18:58:15.854Z,99910.16
2022-12-31T19:01:05.042Z,99912.06
2022-12-31T19:03:52.893Z,99916.94
2022-12-31T19:06:40.662Z,99921.22
2022-12-31T19:09:45.136Z,99938.81
2022-12-31T19:12:34.042Z,99950.28
2022-12-31T19:15:27.081Z,99945.38
2022-12-31T19:18:15.763Z,99934.84
2022-12-31T19:21:03.714Z,99961.88
2022-12-31T19:23:53.294Z,99966.03
2022-12-31T19:26:43.530Z,99957.69
2022-12-31T19:29:31.071Z,99949.50
2022-12-31T19:32:18.495Z,99946.34
2022-12-31T19:35:07.632Z,99941.25
2022-12-31T19:37:56.535Z,99931.53
2022-12-31T19:40:44.223Z,99947.56
2022-12-31T19:43:31.980Z,99950.91
2022-12-31T19:46:20.353Z,99943.59
2022-12-31T19:49:08.086Z,99959.53
2022-12-31T19:51:56.865Z,99977.44
2022-12-31T19:54:44.172Z,99966.44
2022-12-31T19:57:31.568Z,99951.03
2022-12-31T20:00:20.506Z,99955.72
2022-12-31T20:03:07.997Z,99969.78
2022-12-31T20:06:04.014Z,99958.56
2022-12-31T20:08:53.387Z,99972.19
2022-12-31T20:11:40.783Z,99968.22
2022-12-31T20:14:27.981Z,99970.59
2022-12-31T20:17:15.495Z,99986.16
2022-12-31T20:20:03.009Z,99982.94
2022-12-31T20:22:50.770Z,99981.59
2022-12-31T20:25:39.732Z,99990.56
2022-12-31T20:28:27.172Z,99992.69
2022-12-31T20:31:16.372Z,99994.88
2022-12-31T20:34:03.921Z,100000.84
2022-12-31T20:36:51.100Z,99986.50
2022-12-31T20:39:39.103Z,100006.34
2022-12-31T20:42:28.076Z,100014.56
2022-12-31T20:45:15.553Z,100006.69
2022-12-31T20:48:02.834Z,100018.97
2022-12-31T20:50:55.966Z,100037.03
2022-12-31T20:53:48.518Z,100023.28
2022-12-31T20:56:38.387Z,100035.69
2022-12-31T20:59:27.266Z,100025.78
2022-12-31T21:02:29.497Z,100034.28
2022-12-31T21:05:23.512Z,100031.63
2022-12-31T21:08:11.282Z,100025.19
2022-12-31T21:10:58.596Z,100024.47
2022-12-31T21:13:45.133Z,100026.28
2022-12-31T21:16:34.231Z,100033.47
2022-12-31T21:19:21.643Z,100033.56
2022-12-31T21:22:08.872Z,100039.75
2022-12-31T21:24:56.298Z,100045.16
2022-12-31T21:27:44.029Z,100039.53
2022-12-31T21:30:32.174Z,100032.47
2022-12-31T21:33:21.144Z,100050.75
2022-12-31T21:36:08.860Z,100050.41
2022-12-31T21:38:56.192Z,100038.72
2022-12-31T21:41:52.418Z,100039.53
2022-12-31T21:44:39.803Z,100047.66
2022-12-31T21:47:47.581Z,100047.78
2022-12-31T21:50:37.001Z,100045.50
2022-12-31T21:53:32.308Z,100058.31
2022-12-31T21:56:24.245Z,100042.50
2022-12-31T21:59:29.384Z,100050.78
2022-12-31T22:02:34.243Z,100058.19
2022-12-31T22:05:25.302Z,100070.75
2022-12-31T22:08:14.200Z,100066.31
2022-12-31T22:11:01.568Z,100050.28
2022-12-31T22:13:49.213Z,100046.13
2022-12-31T22:16:36.604Z,100063.31
2022-12-31T22:19:23.693Z,100073.72
2022-12-31T22:22:11.247Z,100069.06
2022-12-31T22:25:00.562Z,100075.38
2022-12-31T22:28:04.413Z,100084.50
2022-12-31T22:30:56.077Z,100082.22
2022-12-31T22:33:44.182Z,100093.69
2022-12-31T22:36:31.745Z,100083.16
2022-12-31T22:39:43.809Z,100074.53
2022-12-31T22:42:28.505Z,100102.41
2022-12-31T22:45:15.724Z,100097.16
2022-12-31T22:48:02.976Z,100108.38
2022-12-31T22:50:56.484Z,100112.09
2022-12-31T22:53:44.407Z,100109.34
2022-12-31T22:56:31.999Z,100114.47
2022-12-31T22:59:20.789Z,100117.44
2022-12-31T23:02:08.063Z,100107.44
2022-12-31T23:05:15.278Z,100115.19
2022-12-31T23:08:12.889Z,100112.09
2022-12-31T23:11:06.140Z,100116.16
2022-12-31T23:14:11.313Z,100131.81
2022-12-31T23:17:30.923Z,100113.16
2022-12-31T23:20:39.987Z,100116.16
2022-12-31T23:23:27.537Z,100122.47
2022-12-31T23:26:14.824Z,100108.84
2022-12-31T23:29:02.979Z,100120.66
2022-12-31T23:31:50.558Z,100131.66
2022-12-31T23:34:39.752Z,100119.50
2022-12-31T23:37:27.432Z,100128.91
2022-12-31T23:40:20.867Z,100127.22
2022-12-31T23:43:09.923Z,100128.22
2022-12-31T23:45:57.332Z,100129.28
2022-12-31T23:48:45.182Z,100142.06
2022-12-31T23:51:36.153Z,100135.16
2022-12-31T23:54:23.812Z,100126.28
2022-12-31T23:57:11.247Z,100127.47
2022-12-31T23:59:58.836Z,100128.91
